Time;durP1;ratioP1;P1;durP2;ratioP2;P2;SDS_P1;SDS_P2;PMS_P1;PMS_P2;Temp;Humidity;BMP_temperature;BMP_pressure;BME280_temperature;BME280_humidity;BME280_pressure;Samples;Min_cycle;Max_cycle;Signal;HPM_P1;HPM_P2
2022/08/03 00:01:23;;;;;;;19.83;5.63;;;;;;;-146.72;100.00;64895.28;5091454;28;20523;-74
2022/08/03 00:03:49;;;;;;;8.93;5.40;;;;;;;-146.72;100.00;64895.28;5092811;28;20497;-74
2022/08/03 00:06:16;;;;;;;5.97;4.60;;;;;;;-146.72;100.00;64895.28;5095598;28;20823;-74
2022/08/03 00:08:43;;;;;;;9.77;6.00;;;;;;;-146.72;100.00;64895.28;5093949;28;20497;-74
2022/08/03 00:11:10;;;;;;;6.93;5.00;;;;;;;-146.72;100.00;64895.28;5094284;28;20476;-74
2022/08/03 00:13:36;;;;;;;7.00;6.13;;;;;;;-146.72;100.00;64895.28;5075996;28;20459;-74
2022/08/03 00:16:04;;;;;;;7.80;5.53;;;;;;;-146.72;100.00;64895.28;5091406;28;20450;-74
2022/08/03 00:18:30;;;;;;;8.10;6.00;;;;;;;-146.72;100.00;64895.28;5090080;28;20934;-74
2022/08/03 00:20:57;;;;;;;9.10;5.50;;;;;;;-146.72;100.00;64895.28;5090170;28;20885;-74
2022/08/03 00:23:24;;;;;;;6.77;6.00;;;;;;;-146.72;100.00;64895.28;5084776;28;20476;-74
2022/08/03 00:25:50;;;;;;;6.33;5.43;;;;;;;-146.72;100.00;64895.28;5069497;28;20502;-74
2022/08/03 00:28:17;;;;;;;6.30;5.30;;;;;;;-146.72;100.00;64895.28;5056190;28;20832;-74
2022/08/03 00:30:44;;;;;;;9.70;5.90;;;;;;;-146.72;100.00;64895.28;5083176;28;20427;-74
2022/08/03 00:33:10;;;;;;;8.80;5.00;;;;;;;-146.72;100.00;64895.28;5089578;28;20423;-74
2022/08/03 00:35:39;;;;;;;7.73;5.43;;;;;;;-146.72;100.00;64895.28;5074639;28;20811;-74
2022/08/03 00:38:17;;;;;;;8.50;5.67;;;;;;;-146.72;100.00;64895.28;5061146;28;20801;-74
2022/08/03 00:40:44;;;;;;;6.27;5.67;;;;;;;-146.72;100.00;64895.28;5073791;28;20471;-74
2022/08/03 00:43:11;;;;;;;6.53;5.30;;;;;;;-146.72;100.00;64895.28;5073593;28;20486;-74
2022/08/03 00:45:40;;;;;;;5.70;4.97;;;;;;;-146.72;100.00;64895.28;5074730;28;20502;-74
2022/08/03 00:48:08;;;;;;;5.93;5.40;;;;;;;-146.72;100.00;64895.28;5073431;28;20460;-75
2022/08/03 00:50:55;;;;;;;7.23;5.00;;;;;;;-146.72;100.00;64895.28;5073610;28;20519;-74
2022/08/03 00:53:22;;;;;;;6.73;5.53;;;;;;;-146.72;100.00;64895.28;5073584;28;20420;-74
2022/08/03 00:55:48;;;;;;;6.13;4.60;;;;;;;-146.72;100.00;64895.28;5073258;28;21028;-74
2022/08/03 00:58:15;;;;;;;8.10;5.33;;;;;;;-146.72;100.00;64895.28;5073510;28;20475;-74
2022/08/03 01:00:42;;;;;;;8.00;5.80;;;;;;;-146.72;100.00;64895.28;5061611;28;20953;-74
2022/08/03 01:03:10;;;;;;;6.67;5.40;;;;;;;-146.72;100.00;64895.28;5076743;28;20469;-74
2022/08/03 01:05:48;;;;;;;7.70;5.60;;;;;;;-146.72;100.00;64895.28;5089511;28;20886;-74
2022/08/03 01:08:25;;;;;;;12.47;6.30;;;;;;;-146.72;100.00;64895.28;5073218;28;20432;-74
2022/08/03 01:11:11;;;;;;;6.50;4.87;;;;;;;-146.72;100.00;64895.28;5073126;28;20432;-74
2022/08/03 01:13:52;;;;;;;11.13;5.80;;;;;;;-146.72;100.00;64895.28;5052973;28;20479;-74
2022/08/03 01:16:56;;;;;;;11.37;5.97;;;;;;;-146.72;100.00;64895.28;5054340;28;20468;-76
2022/08/03 01:19:32;;;;;;;8.27;5.40;;;;;;;-146.72;100.00;64895.28;5073356;28;20421;-76
2022/08/03 01:22:20;;;;;;;8.37;5.60;;;;;;;-146.72;100.00;64895.28;5076213;28;20443;-76
2022/08/03 01:25:10;;;;;;;10.80;6.70;;;;;;;-146.72;100.00;64895.28;5090704;28;20558;-76
2022/08/03 01:27:55;;;;;;;10.47;6.27;;;;;;;-146.72;100.00;64895.28;5058931;28;20479;-76
2022/08/03 01:30:34;;;;;;;7.00;5.27;;;;;;;-146.72;100.00;64895.28;5071029;28;20450;-76
2022/08/03 01:33:11;;;;;;;11.73;6.10;;;;;;;-146.72;100.00;64895.28;5081349;28;20424;-76
2022/08/03 01:35:45;;;;;;;13.53;6.80;;;;;;;-146.72;100.00;64895.28;5071652;28;20417;-76
2022/08/03 01:38:16;;;;;;;9.70;6.40;;;;;;;-146.72;100.00;64895.28;5059890;28;20810;-76
2022/08/03 01:40:46;;;;;;;13.63;6.30;;;;;;;-146.72;100.00;64895.28;5072705;28;20431;-76
2022/08/03 01:43:18;;;;;;;11.27;6.30;;;;;;;-146.72;100.00;64895.28;5064374;28;20433;-76
2022/08/03 01:46:07;;;;;;;10.83;5.83;;;;;;;-146.72;100.00;64895.28;5089119;28;20554;-76
2022/08/03 01:48:38;;;;;;;12.77;6.30;;;;;;;-146.72;100.00;64895.28;5092661;28;20531;-76
2022/08/03 01:51:07;;;;;;;6.47;5.77;;;;;;;-146.72;100.00;64895.28;5092665;28;20972;-76
2022/08/03 01:53:37;;;;;;;9.90;6.70;;;;;;;-146.72;100.00;64895.28;5092777;28;20419;-76
2022/08/03 01:56:05;;;;;;;8.00;5.93;;;;;;;-146.72;100.00;64895.28;5092640;28;20862;-76
2022/08/03 01:58:35;;;;;;;12.63;6.60;;;;;;;-146.72;100.00;64895.28;5075877;28;20485;-76
2022/08/03 02:01:03;;;;;;;8.80;5.97;;;;;;;-146.72;100.00;64895.28;5092512;28;20980;-76
2022/08/03 02:03:35;;;;;;;12.07;6.70;;;;;;;-146.72;100.00;64895.28;5075670;28;20446;-76
2022/08/03 02:06:03;;;;;;;16.33;7.40;;;;;;;-146.72;100.00;64895.28;5092127;28;20464;-76
2022/08/03 02:08:52;;;;;;;8.27;5.10;;;;;;;-146.72;100.00;64895.28;5092401;28;20534;-76
2022/08/03 02:11:19;;;;;;;8.33;5.97;;;;;;;-146.72;100.00;64895.28;5092425;28;21008;-76
2022/08/03 02:13:49;;;;;;;8.50;5.90;;;;;;;-146.72;100.00;64895.28;5093702;28;20424;-76
2022/08/03 02:16:18;;;;;;;9.63;6.50;;;;;;;-146.72;100.00;64895.28;5092272;28;20493;-76
2022/08/03 02:18:46;;;;;;;10.93;5.87;;;;;;;-146.72;100.00;64895.28;5068050;28;20854;-76
2022/08/03 02:21:14;;;;;;;13.00;6.37;;;;;;;-146.72;100.00;64895.28;5073243;28;20569;-76
2022/08/03 02:24:03;;;;;;;13.30;5.57;;;;;;;-146.72;100.00;64895.28;5071980;28;20482;-76
2022/08/03 02:26:32;;;;;;;6.17;5.57;;;;;;;-146.72;100.00;64895.28;5069102;28;20530;-72
2022/08/03 02:29:04;;;;;;;7.70;6.37;;;;;;;-146.72;100.00;64895.28;5073184;28;20467;-72
2022/08/03 02:31:35;;;;;;;11.57;6.30;;;;;;;-146.72;100.00;64895.28;5055093;28;20473;-73
2022/08/03 02:34:08;;;;;;;9.60;6.50;;;;;;;-146.72;100.00;64895.28;5067175;28;20468;-74
2022/08/03 02:36:38;;;;;;;10.63;7.20;;;;;;;-146.72;100.00;64895.28;5041851;28;20506;-74
2022/08/03 02:39:08;;;;;;;7.60;5.30;;;;;;;-146.72;100.00;64895.28;5072837;28;20428;-74
2022/08/03 02:41:46;;;;;;;9.47;6.70;;;;;;;-146.72;100.00;64895.28;5088488;28;20506;-74
2022/08/03 02:44:16;;;;;;;8.23;5.70;;;;;;;-146.72;100.00;64895.28;5087708;28;20958;-74
2022/08/03 02:46:45;;;;;;;11.33;6.40;;;;;;;-146.72;100.00;64895.28;5091639;28;20471;-74
2022/08/03 02:49:14;;;;;;;8.30;5.83;;;;;;;-146.72;100.00;64895.28;5091728;28;20463;-74
2022/08/03 02:52:03;;;;;;;7.63;5.90;;;;;;;-146.72;100.00;64895.28;5091617;28;20946;-74
2022/08/03 02:54:32;;;;;;;10.83;6.30;;;;;;;-146.72;100.00;64895.28;5092251;28;20443;-73
2022/08/03 02:57:01;;;;;;;14.50;6.43;;;;;;;-146.72;100.00;64895.28;5078224;28;20455;-74
2022/08/03 02:59:30;;;;;;;13.33;6.93;;;;;;;-146.72;100.00;64895.28;5097086;28;20764;-74
2022/08/03 03:01:59;;;;;;;9.27;6.40;;;;;;;-146.72;100.00;64895.28;5093313;28;20428;-73
2022/08/03 03:04:27;;;;;;;24.37;7.07;;;;;;;-146.72;100.00;64895.28;5076645;28;20429;-74
2022/08/03 03:06:59;;;;;;;7.97;5.73;;;;;;;-146.72;100.00;64895.28;5071517;28;20471;-74
2022/08/03 03:09:30;;;;;;;12.60;5.93;;;;;;;-146.72;100.00;64895.28;5060231;28;20533;-74
2022/08/03 03:12:11;;;;;;;11.47;5.60;;;;;;;-146.72;100.00;64895.28;5084537;28;20537;-74
2022/08/03 03:14:38;;;;;;;12.80;6.73;;;;;;;-146.72;100.00;64895.28;5070883;28;20528;-74
2022/08/03 03:17:13;;;;;;;8.80;6.13;;;;;;;-146.72;100.00;64895.28;5059109;28;20441;-74
2022/08/03 03:19:41;;;;;;;11.13;5.50;;;;;;;-146.72;100.00;64895.28;5087964;28;20574;-74
2022/08/03 03:22:09;;;;;;;11.57;6.30;;;;;;;-146.72;100.00;64895.28;5054316;28;20436;-74
2022/08/03 03:24:37;;;;;;;13.47;7.07;;;;;;;-146.72;100.00;64895.28;5053997;28;20979;-74
2022/08/03 03:27:04;;;;;;;16.90;7.43;;;;;;;-146.72;100.00;64895.28;5061583;28;20461;-74
2022/08/03 03:29:33;;;;;;;10.50;6.70;;;;;;;-146.72;100.00;64895.28;5082706;28;20471;-73
2022/08/03 03:32:05;;;;;;;11.50;6.67;;;;;;;-146.72;100.00;64895.28;5054729;28;20448;-73
2022/08/03 03:34:35;;;;;;;10.30;6.17;;;;;;;-146.72;100.00;64895.28;5052154;28;20443;-73
2022/08/03 03:37:02;;;;;;;9.10;6.43;;;;;;;-146.72;100.00;64895.28;5080301;28;20448;-73
2022/08/03 03:39:28;;;;;;;14.53;5.70;;;;;;;-146.72;100.00;64895.28;5072210;28;20849;-74
2022/08/03 03:41:56;;;;;;;9.93;7.37;;;;;;;-146.72;100.00;64895.28;5071669;28;20429;-74
2022/08/03 03:44:28;;;;;;;11.43;6.17;;;;;;;-146.72;100.00;64895.28;5070397;28;20995;-74
2022/08/03 03:46:56;;;;;;;7.77;6.37;;;;;;;-146.72;100.00;64895.28;5071485;28;20980;-74
2022/08/03 03:49:23;;;;;;;10.40;5.83;;;;;;;-146.72;100.00;64895.28;5070112;28;20561;-74
2022/08/03 03:51:54;;;;;;;11.90;7.37;;;;;;;-146.72;100.00;64895.28;5070156;28;20978;-74
2022/08/03 03:54:21;;;;;;;8.50;6.70;;;;;;;-146.72;100.00;64895.28;5070289;28;20460;-74
2022/08/03 03:56:54;;;;;;;8.80;5.50;;;;;;;-146.72;100.00;64895.28;5070167;28;20556;-74
2022/08/03 03:59:21;;;;;;;9.37;6.80;;;;;;;-146.72;100.00;64895.28;5070146;28;20436;-74
2022/08/03 04:01:48;;;;;;;9.80;5.20;;;;;;;-146.72;100.00;64895.28;5053653;28;20502;-74
2022/08/03 04:12:43;;;;;;;8.93;6.17;;;;;;;-146.72;100.00;64895.28;5090328;28;21352;-74
2022/08/03 04:15:20;;;;;;;12.83;6.10;;;;;;;-146.72;100.00;64895.28;5074344;28;20427;-73
2022/08/03 04:17:50;;;;;;;9.20;5.53;;;;;;;-146.72;100.00;64895.28;5089987;28;20509;-74
2022/08/03 04:20:20;;;;;;;8.13;5.50;;;;;;;-146.72;100.00;64895.28;5091612;28;20423;-74
2022/08/03 04:22:51;;;;;;;12.70;6.43;;;;;;;-146.72;100.00;64895.28;5091620;28;20824;-74
2022/08/03 04:25:22;;;;;;;8.27;6.50;;;;;;;-146.72;100.00;64895.28;5091480;28;20438;-73
2022/08/03 04:27:51;;;;;;;7.83;5.90;;;;;;;-146.72;100.00;64895.28;5061503;28;20441;-74
2022/08/03 04:30:46;;;;;;;14.73;6.30;;;;;;;-146.72;100.00;64895.28;5075918;28;20424;-73
2022/08/03 04:33:15;;;;;;;11.53;6.37;;;;;;;-146.72;100.00;64895.28;5093820;28;20439;-73
2022/08/03 04:35:45;;;;;;;8.63;6.60;;;;;;;-146.72;100.00;64895.28;5076650;28;20428;-73
2022/08/03 04:38:31;;;;;;;10.07;6.60;;;;;;;-146.72;100.00;64895.28;5059012;28;20835;-73
2022/08/03 04:40:59;;;;;;;6.80;6.10;;;;;;;-146.72;100.00;64895.28;5069951;28;20440;-73
2022/08/03 04:43:28;;;;;;;15.03;6.67;;;;;;;-146.72;100.00;64895.28;5069956;28;20432;-73
2022/08/03 04:45:56;;;;;;;10.47;6.63;;;;;;;-146.72;100.00;64895.28;5053120;28;20465;-73
2022/08/03 04:48:23;;;;;;;13.73;7.47;;;;;;;-146.72;100.00;64895.28;5071095;28;20527;-73
2022/08/03 04:50:50;;;;;;;9.20;7.93;;;;;;;-146.72;100.00;64895.28;5069527;28;20433;-73
2022/08/03 04:53:17;;;;;;;8.00;6.17;;;;;;;-146.72;100.00;64895.28;5081879;28;20428;-73
2022/08/03 04:55:45;;;;;;;10.87;6.10;;;;;;;-146.72;100.00;64895.28;5072960;28;20443;-73
2022/08/03 04:58:11;;;;;;;7.50;6.10;;;;;;;-146.72;100.00;64895.28;5089644;28;20436;-73
2022/08/03 05:00:38;;;;;;;10.33;6.17;;;;;;;-146.72;100.00;64895.28;5073031;28;21015;-73
2022/08/03 05:03:05;;;;;;;10.20;6.27;;;;;;;-146.72;100.00;64895.28;5072835;28;20435;-73
2022/08/03 05:05:53;;;;;;;10.87;6.50;;;;;;;-146.72;100.00;64895.28;5089546;28;20447;-74
2022/08/03 05:08:37;;;;;;;11.63;6.40;;;;;;;-146.72;100.00;64895.28;5089492;28;20493;-74
2022/08/03 05:11:14;;;;;;;10.50;7.07;;;;;;;-146.72;100.00;64895.28;5074058;28;20450;-74
2022/08/03 05:13:41;;;;;;;8.47;6.80;;;;;;;-146.72;100.00;64895.28;5089561;28;20473;-74
2022/08/03 05:16:08;;;;;;;8.23;6.63;;;;;;;-146.72;100.00;64895.28;5089662;28;20450;-74
2022/08/03 05:18:34;;;;;;;11.43;6.00;;;;;;;-146.72;100.00;64895.28;5089504;28;20489;-74
2022/08/03 05:21:01;;;;;;;9.67;6.60;;;;;;;-146.72;100.00;64895.28;5079397;28;20417;-74
2022/08/03 05:23:28;;;;;;;9.47;6.47;;;;;;;-146.72;100.00;64895.28;5072958;28;20469;-74
2022/08/03 05:25:55;;;;;;;8.00;5.87;;;;;;;-146.72;100.00;64895.28;5074084;28;20514;-74
2022/08/03 05:28:22;;;;;;;8.37;7.47;;;;;;;-146.72;100.00;64895.28;5072746;28;20440;-74
2022/08/03 05:30:48;;;;;;;6.80;6.20;;;;;;;-146.72;100.00;64895.28;5072907;28;20456;-74
2022/08/03 05:33:15;;;;;;;10.23;5.87;;;;;;;-146.72;100.00;64895.28;5056370;28;20437;-74
2022/08/03 05:35:42;;;;;;;7.70;6.33;;;;;;;-146.72;100.00;64895.28;5079806;28;20446;-74
2022/08/03 05:38:28;;;;;;;9.43;6.10;;;;;;;-146.72;100.00;64895.28;5094334;28;20415;-74
2022/08/03 05:41:01;;;;;;;8.17;6.70;;;;;;;-146.72;100.00;64895.28;5094205;28;20451;-74
2022/08/03 05:43:48;;;;;;;7.47;6.67;;;;;;;-146.72;100.00;64895.28;5093259;28;20427;-74
2022/08/03 05:46:15;;;;;;;9.20;6.47;;;;;;;-146.72;100.00;64895.28;5075900;28;20990;-74
2022/08/03 05:48:42;;;;;;;9.87;6.80;;;;;;;-146.72;100.00;64895.28;5076096;28;20439;-74
2022/08/03 05:51:09;;;;;;;9.13;8.27;;;;;;;-146.72;100.00;64895.28;5092584;28;20447;-74
2022/08/03 05:53:38;;;;;;;9.50;6.70;;;;;;;-146.72;100.00;64895.28;5092411;28;20947;-74
2022/08/03 05:56:05;;;;;;;9.70;7.53;;;;;;;-146.72;100.00;64895.28;5073597;28;20525;-74
2022/08/03 05:58:45;;;;;;;8.03;6.63;;;;;;;-146.72;100.00;64895.28;5072515;28;20438;-74
2022/08/03 06:01:14;;;;;;;8.87;5.60;;;;;;;-146.72;100.00;64895.28;5078468;28;20437;-74
2022/08/03 06:03:41;;;;;;;10.03;7.00;;;;;;;-146.72;100.00;64895.28;5079688;28;20431;-74
2022/08/03 06:06:08;;;;;;;9.20;6.23;;;;;;;-146.72;100.00;64895.28;5080606;28;20994;-74
2022/08/03 06:08:35;;;;;;;7.70;6.90;;;;;;;-146.72;100.00;64895.28;5080374;28;20417;-74
2022/08/03 06:11:02;;;;;;;8.40;7.37;;;;;;;-146.72;100.00;64895.28;5087399;28;20435;-74
2022/08/03 06:13:29;;;;;;;10.07;6.67;;;;;;;-146.72;100.00;64895.28;5075622;28;20518;-74
2022/08/03 06:15:56;;;;;;;8.70;6.77;;;;;;;-146.72;100.00;64895.28;5092167;28;20428;-74
2022/08/03 06:18:23;;;;;;;10.57;7.07;;;;;;;-146.72;100.00;64895.28;5089554;28;20519;-74
2022/08/03 06:20:50;;;;;;;12.10;6.70;;;;;;;-146.72;100.00;64895.28;5072303;28;20443;-74
2022/08/03 06:23:18;;;;;;;7.13;6.00;;;;;;;-146.72;100.00;64895.28;5059874;28;20424;-74
2022/08/03 06:25:46;;;;;;;9.20;6.40;;;;;;;-146.72;100.00;64895.28;5075210;28;20500;-74
2022/08/03 06:28:13;;;;;;;11.13;6.57;;;;;;;-146.72;100.00;64895.28;5075006;28;20468;-74
2022/08/03 06:31:00;;;;;;;6.03;5.57;;;;;;;-146.72;100.00;64895.28;5073218;28;20424;-74
2022/08/03 06:33:27;;;;;;;8.80;5.03;;;;;;;-146.72;100.00;64895.28;5072478;28;20432;-74
2022/08/03 06:36:14;;;;;;;5.50;5.00;;;;;;;-146.72;100.00;64895.28;5069032;28;20498;-74
2022/08/03 06:38:41;;;;;;;5.50;5.00;;;;;;;-146.72;100.00;64895.28;5071575;28;20472;-74
2022/08/03 06:41:07;;;;;;;4.90;4.50;;;;;;;-146.72;100.00;64895.28;5071410;28;20472;-74
2022/08/03 06:43:36;;;;;;;4.67;3.53;;;;;;;-146.72;100.00;64895.28;5088279;28;20483;-74
2022/08/03 06:46:06;;;;;;;4.00;3.70;;;;;;;-146.72;100.00;64895.28;5071207;28;20468;-74
2022/08/03 06:48:33;;;;;;;4.80;4.40;;;;;;;-146.72;100.00;64895.28;5088260;28;20870;-74
2022/08/03 06:51:00;;;;;;;4.83;4.47;;;;;;;-146.72;100.00;64895.28;5071321;28;20535;-74
2022/08/03 06:53:26;;;;;;;4.80;4.50;;;;;;;-146.72;100.00;64895.28;5071386;28;20515;-74
2022/08/03 06:55:53;;;;;;;5.80;5.30;;;;;;;-146.72;100.00;64895.28;5071139;28;20912;-74
2022/08/03 06:58:21;;;;;;;4.37;3.97;;;;;;;-146.72;100.00;64895.28;5072619;28;20434;-74
2022/08/03 07:00:48;;;;;;;4.67;4.23;;;;;;;-146.72;100.00;64895.28;5051060;28;20441;-74
2022/08/03 07:03:15;;;;;;;4.50;4.20;;;;;;;-146.72;100.00;64895.28;5054558;28;20444;-74
2022/08/03 07:05:44;;;;;;;5.20;4.63;;;;;;;-146.72;100.00;64895.28;5051091;28;20453;-74
2022/08/03 07:08:11;;;;;;;4.73;4.33;;;;;;;-146.72;100.00;64895.28;5064255;28;21017;-74
2022/08/03 07:10:38;;;;;;;4.50;4.10;;;;;;;-146.72;100.00;64895.28;5070934;28;20429;-74
2022/08/03 07:13:05;;;;;;;5.33;4.03;;;;;;;-146.72;100.00;64895.28;5070892;28;20443;-74
2022/08/03 07:15:33;;;;;;;3.97;3.60;;;;;;;-146.72;100.00;64895.28;5072186;28;20515;-74
2022/08/03 07:18:19;;;;;;;4.10;3.70;;;;;;;-146.72;100.00;64895.28;5070943;28;20428;-74
2022/08/03 07:20:56;;;;;;;3.93;3.13;;;;;;;-146.72;100.00;64895.28;5050865;28;20490;-74
2022/08/03 07:23:24;;;;;;;4.03;3.73;;;;;;;-146.72;100.00;64895.28;5068247;28;20456;-74
2022/08/03 07:25:51;;;;;;;4.20;3.90;;;;;;;-146.72;100.00;64895.28;5053978;28;20432;-74
2022/08/03 07:28:17;;;;;;;5.10;4.60;;;;;;;-146.72;100.00;64895.28;5070458;28;20429;-74
2022/08/03 07:30:44;;;;;;;4.27;3.73;;;;;;;-146.72;100.00;64895.28;5053919;28;21001;-74
2022/08/03 07:33:11;;;;;;;3.60;3.33;;;;;;;-146.72;100.00;64895.28;5070564;28;20444;-74
2022/08/03 07:35:38;;;;;;;6.80;4.30;;;;;;;-146.72;100.00;64895.28;5076843;28;20435;-74
2022/08/03 07:38:05;;;;;;;4.37;4.00;;;;;;;-146.72;100.00;64895.28;5090444;28;21084;-74
2022/08/03 07:40:31;;;;;;;4.10;3.80;;;;;;;-146.72;100.00;64895.28;5061440;28;20432;-74
2022/08/03 07:42:59;;;;;;;4.40;4.00;;;;;;;-146.72;100.00;64895.28;5053620;28;20428;-74
2022/08/03 07:45:25;;;;;;;4.63;3.80;;;;;;;-146.72;100.00;64895.28;5070693;28;20433;-74
2022/08/03 07:47:53;;;;;;;5.03;4.47;;;;;;;-146.72;100.00;64895.28;5070183;28;20842;-74
2022/08/03 07:50:20;;;;;;;6.40;4.27;;;;;;;-146.72;100.00;64895.28;5070324;28;20478;-74
2022/08/03 07:52:48;;;;;;;3.87;3.57;;;;;;;-146.72;100.00;64895.28;5086935;28;20790;-74
2022/08/03 07:55:18;;;;;;;4.17;3.83;;;;;;;-146.72;100.00;64895.28;5070082;28;20443;-74
2022/08/03 07:57:45;;;;;;;8.07;4.30;;;;;;;-146.72;100.00;64895.28;5053417;28;21101;-74
2022/08/03 08:00:18;;;;;;;4.60;4.20;;;;;;;-146.72;100.00;64895.28;5070089;28;20506;-74
2022/08/03 08:02:45;;;;;;;4.20;3.90;;;;;;;-146.72;100.00;64895.28;5061675;28;20460;-74
2022/08/03 08:05:12;;;;;;;4.53;4.23;;;;;;;-146.72;100.00;64895.28;5080606;28;20480;-74
2022/08/03 08:07:39;;;;;;;4.23;3.93;;;;;;;-146.72;100.00;64895.28;5069739;28;20874;-74
2022/08/03 08:10:08;;;;;;;4.70;4.07;;;;;;;-146.72;100.00;64895.28;5053470;28;20453;-74
2022/08/03 08:12:37;;;;;;;3.93;3.43;;;;;;;-146.72;100.00;64895.28;5069829;28;20440;-74
2022/08/03 08:15:06;;;;;;;5.43;4.27;;;;;;;-146.72;100.00;64895.28;5086290;28;20486;-74
2022/08/03 08:17:46;;;;;;;4.10;3.70;;;;;;;-146.72;100.00;64895.28;5091333;28;20676;-74
2022/08/03 08:20:19;;;;;;;4.70;4.20;;;;;;;-146.72;100.00;64895.28;5090065;28;20427;-74
2022/08/03 08:23:00;;;;;;;3.90;3.57;;;;;;;-146.72;100.00;64895.28;5091281;28;20431;-74
2022/08/03 08:25:31;;;;;;;4.90;3.60;;;;;;;-146.72;100.00;64895.28;5090044;28;20926;-74
2022/08/03 08:28:07;;;;;;;4.07;3.77;;;;;;;-146.72;100.00;64895.28;5060231;28;20476;-74
2022/08/03 08:30:53;;;;;;;3.53;3.23;;;;;;;-146.72;100.00;64895.28;5071063;28;20435;-74
2022/08/03 08:33:20;;;;;;;4.70;3.57;;;;;;;-146.72;100.00;64895.28;5069689;28;20464;-74
2022/08/03 08:35:51;;;;;;;4.33;4.03;;;;;;;-146.72;100.00;64895.28;5077690;28;20446;-74
2022/08/03 08:38:18;;;;;;;4.07;3.77;;;;;;;-146.72;100.00;64895.28;5089895;28;20841;-74
2022/08/03 08:40:45;;;;;;;4.30;4.00;;;;;;;-146.72;100.00;64895.28;5089652;28;20464;-74
2022/08/03 08:43:12;;;;;;;3.83;3.53;;;;;;;-146.72;100.00;64895.28;5072969;28;20465;-74
2022/08/03 08:45:40;;;;;;;3.53;3.30;;;;;;;-146.72;100.00;64895.28;5089629;28;20435;-74
2022/08/03 08:48:09;;;;;;;3.20;2.90;;;;;;;-146.72;100.00;64895.28;5089652;28;20498;-74
2022/08/03 08:50:37;;;;;;;4.60;3.30;;;;;;;-146.72;100.00;64895.28;5090575;28;20466;-74
2022/08/03 08:53:06;;;;;;;5.13;3.30;;;;;;;-146.72;100.00;64895.28;5074429;28;20454;-74
2022/08/03 08:55:45;;;;;;;3.93;2.80;;;;;;;-146.72;100.00;64895.28;5091275;28;20526;-74
2022/08/03 08:58:28;;;;;;;2.97;2.77;;;;;;;-146.72;100.00;64895.28;5079821;28;20433;-74
2022/08/03 09:00:55;;;;;;;8.43;2.90;;;;;;;-146.72;100.00;64895.28;5093595;28;20446;-74
2022/08/03 09:03:22;;;;;;;3.57;3.00;;;;;;;-146.72;100.00;64895.28;5094923;28;20416;-74
2022/08/03 09:05:59;;;;;;;3.20;3.00;;;;;;;-146.72;100.00;64895.28;5093465;28;20427;-74
2022/08/03 09:08:26;;;;;;;2.30;2.20;;;;;;;-146.72;100.00;64895.28;5076845;28;20471;-74
2022/08/03 09:10:53;;;;;;;3.50;3.20;;;;;;;-146.72;100.00;64895.28;5093644;28;20443;-74
2022/08/03 09:13:20;;;;;;;4.00;2.83;;;;;;;-146.72;100.00;64895.28;5093480;28;20922;-74
2022/08/03 09:15:48;;;;;;;2.70;2.50;;;;;;;-146.72;100.00;64895.28;5093249;28;20459;-74
2022/08/03 09:18:30;;;;;;;5.27;2.67;;;;;;;-146.72;100.00;64895.28;5089478;28;20507;-74
2022/08/03 09:21:30;;;;;;;2.60;2.40;;;;;;;-146.72;100.00;64895.28;5074402;28;20557;-74
2022/08/03 09:24:01;;;;;;;2.30;2.10;;;;;;;-146.72;100.00;64895.28;5073038;28;20437;-74
2022/08/03 09:26:32;;;;;;;2.87;2.67;;;;;;;-146.72;100.00;64895.28;5072923;28;20506;-75
2022/08/03 09:29:00;;;;;;;22.03;4.20;;;;;;;-146.72;100.00;64895.28;5072820;28;20871;-75
2022/08/03 09:31:44;;;;;;;2.80;2.03;;;;;;;-146.72;100.00;64895.28;5072736;28;20819;-75
2022/08/03 09:34:15;;;;;;;3.93;2.00;;;;;;;-146.72;100.00;64895.28;5067292;28;20425;-74
2022/08/03 09:36:48;;;;;;;2.30;2.10;;;;;;;-146.72;100.00;64895.28;5092964;28;21013;-74
2022/08/03 09:39:17;;;;;;;9.07;3.00;;;;;;;-146.72;100.00;64895.28;5093045;28;20449;-74
2022/08/03 09:41:46;;;;;;;6.70;3.07;;;;;;;-146.72;100.00;64895.28;5092766;28;20496;-74
2022/08/03 09:44:14;;;;;;;2.60;2.40;;;;;;;-146.72;100.00;64895.28;5092677;28;20443;-74
2022/08/03 09:46:57;;;;;;;3.03;2.60;;;;;;;-146.72;100.00;64895.28;5076981;28;20463;-74
2022/08/03 09:49:24;;;;;;;2.97;2.47;;;;;;;-146.72;100.00;64895.28;5087509;28;20496;-74
2022/08/03 09:51:52;;;;;;;2.13;2.03;;;;;;;-146.72;100.00;64895.28;5073833;28;20426;-74
2022/08/03 09:54:40;;;;;;;2.77;2.57;;;;;;;-146.72;100.00;64895.28;5069118;28;20457;-74
2022/08/03 09:57:07;;;;;;;4.27;2.07;;;;;;;-146.72;100.00;64895.28;5075855;28;20463;-74
2022/08/03 09:59:34;;;;;;;2.00;1.90;;;;;;;-146.72;100.00;64895.28;5084099;28;20440;-74
2022/08/03 10:02:04;;;;;;;2.33;2.20;;;;;;;-146.72;100.00;64895.28;5073557;28;20454;-74
2022/08/03 10:04:31;;;;;;;2.17;2.07;;;;;;;-146.72;100.00;64895.28;5073543;28;20429;-74
2022/08/03 10:07:22;;;;;;;3.20;2.20;;;;;;;-146.72;100.00;64895.28;5086891;28;20581;-74
2022/08/03 10:10:16;;;;;;;2.57;2.37;;;;;;;-146.72;100.00;64895.28;5052939;28;20443;-75
2022/08/03 10:12:58;;;;;;;5.17;3.10;;;;;;;-146.72;100.00;64895.28;5092255;28;20518;-75
2022/08/03 10:15:26;;;;;;;2.53;2.33;;;;;;;-146.72;100.00;64895.28;5093385;28;20520;-75
2022/08/03 10:18:13;;;;;;;2.27;2.07;;;;;;;-146.72;100.00;64895.28;5092378;28;20423;-75
2022/08/03 10:20:45;;;;;;;2.07;1.90;;;;;;;-146.72;100.00;64895.28;5075691;28;20431;-75
2022/08/03 10:23:14;;;;;;;2.83;1.83;;;;;;;-146.72;100.00;64895.28;5094485;28;20915;-75
2022/08/03 10:25:43;;;;;;;2.33;2.13;;;;;;;-146.72;100.00;64895.28;5094489;28;20432;-75
2022/08/03 10:28:14;;;;;;;2.33;2.13;;;;;;;-146.72;100.00;64895.28;5058699;28;20563;-75
2022/08/03 10:30:44;;;;;;;1.80;1.70;;;;;;;-146.72;100.00;64895.28;5074333;28;20425;-75
2022/08/03 10:33:22;;;;;;;2.03;1.87;;;;;;;-146.72;100.00;64895.28;5088472;28;20849;-75
2022/08/03 10:36:12;;;;;;;2.10;1.90;;;;;;;-146.72;100.00;64895.28;5085090;28;20548;-74
2022/08/03 10:38:58;;;;;;;2.30;2.10;;;;;;;-146.72;100.00;64895.28;5071843;28;20478;-75
2022/08/03 10:41:30;;;;;;;2.43;1.90;;;;;;;-146.72;100.00;64895.28;5073394;28;20431;-74
2022/08/03 10:44:14;;;;;;;2.40;1.97;;;;;;;-146.72;100.00;64895.28;5071944;28;20427;-74
2022/08/03 10:46:43;;;;;;;3.00;2.50;;;;;;;-146.72;100.00;64895.28;5071268;28;20890;-74
2022/08/03 10:49:16;;;;;;;2.23;2.03;;;;;;;-146.72;100.00;64895.28;5071354;28;20510;-74
2022/08/03 10:52:01;;;;;;;2.47;2.27;;;;;;;-146.72;100.00;64895.28;5051835;28;20445;-74
2022/08/03 10:57:47;;;;;;;2.37;2.13;;;;;;;-146.72;100.00;64895.28;5042415;28;20514;-74
2022/08/03 11:00:17;;;;;;;3.47;2.33;;;;;;;-146.72;100.00;64895.28;5071480;28;20471;-74
2022/08/03 11:03:10;;;;;;;2.00;1.90;;;;;;;-146.72;100.00;64895.28;5072890;28;20432;-74
2022/08/03 11:05:37;;;;;;;2.03;1.93;;;;;;;-146.72;100.00;64895.28;5071293;28;20495;-74
2022/08/03 11:08:25;;;;;;;3.30;2.27;;;;;;;-146.72;100.00;64895.28;5071136;28;20488;-75
2022/08/03 11:10:54;;;;;;;1.80;1.70;;;;;;;-146.72;100.00;64895.28;5079637;28;20431;-75
2022/08/03 11:13:23;;;;;;;2.10;1.90;;;;;;;-146.72;100.00;64895.28;5089968;28;20450;-75
2022/08/03 11:15:53;;;;;;;1.80;1.70;;;;;;;-146.72;100.00;64895.28;5071269;28;20451;-75
2022/08/03 11:18:28;;;;;;;2.43;1.70;;;;;;;-146.72;100.00;64895.28;5070964;28;20437;-75
2022/08/03 11:20:57;;;;;;;1.93;1.83;;;;;;;-146.72;100.00;64895.28;5072589;28;20433;-75
2022/08/03 11:23:42;;;;;;;2.10;1.87;;;;;;;-146.72;100.00;64895.28;5054858;28;20904;-75
2022/08/03 11:26:29;;;;;;;2.30;2.03;;;;;;;-146.72;100.00;64895.28;5072286;28;20505;-75
2022/08/03 11:29:29;;;;;;;3.70;2.07;;;;;;;-146.72;100.00;64895.28;5072317;28;20504;-75
2022/08/03 11:31:56;;;;;;;2.00;1.80;;;;;;;-146.72;100.00;64895.28;5071447;28;20938;-75
2022/08/03 11:34:23;;;;;;;3.93;2.03;;;;;;;-146.72;100.00;64895.28;5050524;28;20487;-75
2022/08/03 11:37:20;;;;;;;3.10;1.90;;;;;;;-146.72;100.00;64895.28;5081808;28;20488;-74
2022/08/03 11:39:50;;;;;;;2.70;2.50;;;;;;;-146.72;100.00;64895.28;5085789;28;20421;-73